臺中航空站 - ATIS

METAR RCMQ 230030Z 20014KT 9999 FEW012 BKN200 30/24 Q1009 NOSIG RMK A2982=

站台狀態:Online
最後更新:2018-06-23 08:45:01